createdAt,value
2022-10-01T00:01:19.956Z,12.50
2022-10-01T00:03:47.895Z,12.50
2022-10-01T00:06:18.050Z,12.50
2022-10-01T00:08:49.229Z,12.50
2022-10-01T00:11:22.552Z,12.50
2022-10-01T00:13:50.182Z,12.50
2022-10-01T00:16:26.201Z,12.50
2022-10-01T00:18:53.947Z,12.50
2022-10-01T00:21:26.995Z,12.50
2022-10-01T00:23:58.041Z,12.50
2022-10-01T00:26:29.620Z,12.50
2022-10-01T00:29:06.007Z,12.50
2022-10-01T00:31:33.402Z,12.50
2022-10-01T00:34:07.371Z,12.50
2022-10-01T00:36:34.853Z,12.50
2022-10-01T00:39:02.151Z,12.50
2022-10-01T00:41:32.239Z,12.50
2022-10-01T00:44:03.707Z,12.50
2022-10-01T00:46:43.264Z,12.50
2022-10-01T00:49:19.013Z,12.50
2022-10-01T00:51:50.739Z,12.50
2022-10-01T00:54:20.356Z,12.50
2022-10-01T00:56:53.296Z,12.60
2022-10-01T00:59:20.916Z,12.50
2022-10-01T01:01:48.782Z,12.50
2022-10-01T01:04:18.348Z,12.60
2022-10-01T01:06:55.165Z,12.50
2022-10-01T01:09:27.886Z,12.50
2022-10-01T01:12:24.660Z,12.60
2022-10-01T01:15:00.642Z,12.60
2022-10-01T01:17:51.448Z,12.50
2022-10-01T01:20:49.772Z,12.60
2022-10-01T01:23:16.407Z,12.60
2022-10-01T01:25:49.151Z,12.60
2022-10-01T01:28:31.688Z,12.60
2022-10-01T01:31:05.667Z,12.60
2022-10-01T01:33:35.174Z,12.60
2022-10-01T01:36:06.257Z,12.70
2022-10-01T01:38:46.295Z,12.70
2022-10-01T01:41:15.553Z,12.70
2022-10-01T01:43:45.785Z,12.70
2022-10-01T01:46:16.515Z,12.80
2022-10-01T01:48:47.457Z,12.80
2022-10-01T01:51:24.949Z,12.80
2022-10-01T01:53:52.106Z,12.90
2022-10-01T01:56:21.181Z,12.90
2022-10-01T01:58:51.495Z,12.90
2022-10-01T02:01:39.394Z,13.00
2022-10-01T02:04:26.558Z,13.00
2022-10-01T02:07:03.696Z,13.00
2022-10-01T02:09:56.669Z,13.00
2022-10-01T02:12:48.113Z,13.00
2022-10-01T02:15:59.748Z,13.10
2022-10-01T02:18:34.608Z,13.10
2022-10-01T02:21:11.016Z,13.10
2022-10-01T02:23:48.118Z,13.10
2022-10-01T02:26:20.871Z,13.10
2022-10-01T02:28:51.326Z,13.10
2022-10-01T02:31:19.803Z,13.20
2022-10-01T02:33:48.243Z,13.20
2022-10-01T02:36:17.976Z,13.20
2022-10-01T02:38:46.211Z,13.30
2022-10-01T02:41:19.004Z,13.30
2022-10-01T02:43:57.602Z,13.30
2022-10-01T02:46:58.044Z,13.40
2022-10-01T02:49:30.414Z,13.40
2022-10-01T02:52:14.694Z,13.40
2022-10-01T02:55:19.765Z,13.50
2022-10-01T02:57:46.914Z,13.50
2022-10-01T03:00:17.366Z,13.50
2022-10-01T03:02:44.135Z,13.60
2022-10-01T03:05:11.126Z,13.60
2022-10-01T03:07:40.076Z,13.60
2022-10-01T03:10:09.117Z,13.60
2022-10-01T03:12:36.165Z,13.60
2022-10-01T03:15:04.378Z,13.70
2022-10-01T03:17:31.061Z,13.70
2022-10-01T03:19:57.862Z,13.70
2022-10-01T03:22:24.614Z,13.70
2022-10-01T03:24:55.925Z,13.80
2022-10-01T03:27:24.730Z,13.80
2022-10-01T03:29:54.559Z,13.80
2022-10-01T03:32:21.328Z,13.80
2022-10-01T03:34:48.238Z,13.80
2022-10-01T03:37:15.152Z,13.90
2022-10-01T03:39:42.053Z,13.90
2022-10-01T03:42:11.281Z,13.90
2022-10-01T03:44:38.028Z,13.90
2022-10-01T03:47:04.941Z,13.90
2022-10-01T03:49:33.818Z,14.00
2022-10-01T03:52:01.049Z,14.00
2022-10-01T03:54:27.785Z,14.00
2022-10-01T03:56:56.920Z,14.00
2022-10-01T03:59:23.952Z,14.10
2022-10-01T04:01:50.756Z,14.10
2022-10-01T04:04:17.697Z,14.10
2022-10-01T04:06:47.488Z,14.10
2022-10-01T04:09:14.155Z,14.10
2022-10-01T04:11:40.886Z,14.20
2022-10-01T04:14:09.830Z,14.20
2022-10-01T04:16:36.806Z,14.20
2022-10-01T04:19:04.371Z,14.20
2022-10-01T04:21:31.286Z,14.20
2022-10-01T04:24:00.289Z,14.20
2022-10-01T04:26:29.280Z,14.20
2022-10-01T04:28:56.253Z,14.20
2022-10-01T04:31:25.954Z,14.20
2022-10-01T04:33:54.701Z,14.20
2022-10-01T04:36:23.997Z,14.20
2022-10-01T04:38:59.386Z,14.30
2022-10-01T04:41:30.436Z,14.30
2022-10-01T04:43:59.140Z,14.30
2022-10-01T04:46:26.236Z,14.30
2022-10-01T04:48:52.974Z,14.30
2022-10-01T04:51:22.031Z,14.30
2022-10-01T04:53:50.947Z,14.30
2022-10-01T04:56:19.968Z,14.30
2022-10-01T04:58:49.516Z,14.30
2022-10-01T05:01:16.336Z,14.30
2022-10-01T05:03:43.129Z,14.30
2022-10-01T05:06:10.051Z,14.30
2022-10-01T05:08:39.182Z,14.30
2022-10-01T05:11:08.212Z,14.30
2022-10-01T05:13:37.063Z,14.30
2022-10-01T05:16:06.131Z,14.30
2022-10-01T05:18:32.908Z,14.30
2022-10-01T05:20:59.681Z,14.30
2022-10-01T05:23:26.758Z,14.30
2022-10-01T05:25:53.609Z,14.30
2022-10-01T05:28:22.590Z,14.30
2022-10-01T05:30:51.748Z,14.30
2022-10-01T05:33:18.496Z,14.40
2022-10-01T05:35:45.312Z,14.40
2022-10-01T05:38:12.015Z,14.40
2022-10-01T05:40:38.690Z,14.40
2022-10-01T05:43:07.847Z,14.40
2022-10-01T05:45:35.808Z,14.40
2022-10-01T05:48:05.530Z,14.40
2022-10-01T05:50:38.666Z,14.40
2022-10-01T05:53:06.438Z,14.50
2022-10-01T05:55:34.807Z,14.40
2022-10-01T05:58:08.989Z,14.40
2022-10-01T06:00:36.342Z,14.40
2022-10-01T06:03:06.659Z,14.40
2022-10-01T06:05:35.355Z,14.40
2022-10-01T06:08:07.745Z,14.40
2022-10-01T06:10:36.791Z,14.40
2022-10-01T06:13:05.635Z,14.30
2022-10-01T06:15:34.966Z,14.40
2022-10-01T06:18:03.768Z,14.40
2022-10-01T06:20:32.958Z,14.40
2022-10-01T06:23:00.267Z,14.50
2022-10-01T06:25:29.685Z,14.50
2022-10-01T06:27:59.056Z,14.60
2022-10-01T06:30:29.471Z,14.50
2022-10-01T06:33:03.657Z,14.60
2022-10-01T06:35:31.584Z,14.60
2022-10-01T06:37:58.986Z,14.60
2022-10-01T06:40:30.462Z,14.50
2022-10-01T06:43:02.853Z,14.60
2022-10-01T06:45:31.011Z,14.60
2022-10-01T06:48:02.627Z,14.60
2022-10-01T06:50:29.908Z,14.70
2022-10-01T06:52:57.660Z,14.80
2022-10-01T06:55:30.119Z,14.90
2022-10-01T06:58:12.927Z,14.90
2022-10-01T07:00:39.884Z,15.10
2022-10-01T07:03:14.547Z,15.20
2022-10-01T07:05:43.881Z,15.30
2022-10-01T07:08:13.668Z,15.40
2022-10-01T07:10:44.508Z,15.50
2022-10-01T07:13:20.221Z,15.60
2022-10-01T07:15:47.077Z,15.70
2022-10-01T07:18:14.378Z,15.90
2022-10-01T07:20:46.270Z,16.00
2022-10-01T07:23:14.545Z,16.10
2022-10-01T07:25:42.370Z,16.10
2022-10-01T07:28:16.671Z,16.20
2022-10-01T07:30:57.663Z,16.20
2022-10-01T07:33:24.325Z,16.30
2022-10-01T07:35:51.251Z,16.40
2022-10-01T07:38:18.039Z,16.40
2022-10-01T07:40:47.251Z,16.40
2022-10-01T07:43:14.816Z,16.40
2022-10-01T07:45:43.951Z,16.40
2022-10-01T07:48:10.689Z,16.40
2022-10-01T07:50:37.547Z,16.40
2022-10-01T07:53:05.036Z,16.30
2022-10-01T07:55:32.814Z,16.30
2022-10-01T07:58:02.797Z,16.30
2022-10-01T08:00:31.603Z,16.30
2022-10-01T08:03:00.597Z,16.40
2022-10-01T08:05:38.647Z,16.60
2022-10-01T08:08:07.135Z,16.70
2022-10-01T08:10:35.956Z,16.80
2022-10-01T08:13:14.856Z,16.90
2022-10-01T08:15:47.537Z,16.80
2022-10-01T08:18:20.003Z,16.80
2022-10-01T08:20:47.983Z,16.90
2022-10-01T08:23:17.921Z,17.00
2022-10-01T08:25:45.165Z,17.00
2022-10-01T08:28:12.771Z,17.00
2022-10-01T08:30:43.957Z,17.00
2022-10-01T08:33:12.351Z,17.00
2022-10-01T08:35:41.127Z,16.90
2022-10-01T08:38:08.323Z,16.90
2022-10-01T08:40:41.495Z,16.90
2022-10-01T08:43:30.217Z,17.00
2022-10-01T08:46:03.172Z,17.10
2022-10-01T08:48:56.874Z,17.10
2022-10-01T08:51:44.615Z,17.20
2022-10-01T08:54:33.766Z,17.30
2022-10-01T08:57:02.992Z,17.20
2022-10-01T08:59:40.757Z,17.20
2022-10-01T09:02:29.650Z,17.30
2022-10-01T09:05:02.866Z,17.30
2022-10-01T09:07:48.223Z,17.40
2022-10-01T09:10:42.424Z,17.40
2022-10-01T09:13:50.235Z,17.40
2022-10-01T09:16:42.884Z,17.30
2022-10-01T09:19:34.619Z,17.30
2022-10-01T09:22:10.841Z,17.10
2022-10-01T09:24:43.997Z,17.10
2022-10-01T09:27:25.484Z,17.10
2022-10-01T09:29:57.626Z,17.20
2022-10-01T09:32:31.099Z,17.30
2022-10-01T09:35:04.460Z,17.40
2022-10-01T09:37:47.979Z,17.40
2022-10-01T09:40:27.380Z,17.40
2022-10-01T09:42:54.209Z,17.30
2022-10-01T09:45:22.605Z,17.30
2022-10-01T09:47:54.059Z,17.30
2022-10-01T09:50:30.416Z,17.20
2022-10-01T09:53:00.209Z,17.10
2022-10-01T09:55:40.485Z,17.10
2022-10-01T09:58:16.476Z,17.10
2022-10-01T10:00:43.853Z,17.10
2022-10-01T10:03:21.192Z,17.30
2022-10-01T10:05:49.459Z,17.40
2022-10-01T10:08:23.791Z,17.50
2022-10-01T10:11:00.722Z,17.60
2022-10-01T10:13:34.944Z,17.50
2022-10-01T10:16:20.380Z,17.50
2022-10-01T10:18:52.081Z,17.40
2022-10-01T10:21:24.716Z,17.40
2022-10-01T10:23:54.085Z,17.40
2022-10-01T10:26:33.565Z,17.60
2022-10-01T10:29:02.967Z,17.70
2022-10-01T10:31:40.773Z,17.80
2022-10-01T10:34:22.708Z,17.80
2022-10-01T10:36:58.808Z,17.90
2022-10-01T10:39:30.995Z,18.00
2022-10-01T10:41:59.829Z,18.10
2022-10-01T10:44:32.013Z,18.20
2022-10-01T10:47:05.329Z,18.30
2022-10-01T10:49:44.984Z,18.40
2022-10-01T10:52:29.042Z,18.30
2022-10-01T10:54:58.257Z,18.20
2022-10-01T10:57:36.634Z,18.00
2022-10-01T11:00:20.887Z,17.90
2022-10-01T11:02:58.013Z,17.80
2022-10-01T11:05:31.976Z,17.70
2022-10-01T11:08:03.491Z,17.70
2022-10-01T11:10:56.275Z,17.70
2022-10-01T11:13:47.406Z,17.90
2022-10-01T11:16:48.177Z,18.00
2022-10-01T11:19:32.949Z,18.20
2022-10-01T11:22:32.113Z,18.40
2022-10-01T11:25:04.229Z,18.50
2022-10-01T11:28:25.023Z,18.50
2022-10-01T11:31:22.433Z,18.50
2022-10-01T11:34:04.171Z,18.40
2022-10-01T11:36:40.655Z,18.30
2022-10-01T11:39:12.693Z,18.20
2022-10-01T11:41:57.060Z,18.10
2022-10-01T11:44:39.767Z,18.10
2022-10-01T11:47:15.323Z,17.90
2022-10-01T11:49:56.477Z,18.00
2022-10-01T11:52:42.496Z,18.10
2022-10-01T11:55:30.906Z,18.20
2022-10-01T11:58:26.299Z,18.30
2022-10-01T12:01:45.133Z,18.20
2022-10-01T12:04:22.573Z,18.20
2022-10-01T12:06:54.576Z,18.20
2022-10-01T12:09:32.483Z,18.20
2022-10-01T12:12:07.348Z,18.20
2022-10-01T12:14:48.998Z,18.20
2022-10-01T12:17:32.465Z,18.20
2022-10-01T12:20:02.025Z,18.20
2022-10-01T12:22:32.633Z,18.30
2022-10-01T12:24:59.589Z,18.30
2022-10-01T12:28:11.345Z,18.30
2022-10-01T12:30:49.669Z,18.30
2022-10-01T12:34:09.136Z,18.40
2022-10-01T12:36:47.018Z,18.40
2022-10-01T12:39:37.542Z,18.30
2022-10-01T12:42:25.638Z,18.20
2022-10-01T12:45:04.859Z,18.20
2022-10-01T12:47:45.456Z,18.10
2022-10-01T12:50:25.031Z,18.10
2022-10-01T12:53:32.592Z,18.20
2022-10-01T12:56:30.898Z,18.30
2022-10-01T12:59:12.325Z,18.40
2022-10-01T13:02:20.261Z,18.40
2022-10-01T13:05:05.029Z,18.30
2022-10-01T13:07:33.803Z,18.30
2022-10-01T13:10:21.678Z,18.20
2022-10-01T13:12:59.753Z,18.20
2022-10-01T13:15:34.648Z,18.10
2022-10-01T13:18:36.013Z,18.00
2022-10-01T13:21:50.114Z,18.00
2022-10-01T13:24:53.205Z,18.00
2022-10-01T13:27:35.552Z,18.00
2022-10-01T13:30:26.033Z,18.00
2022-10-01T13:33:00.913Z,18.00
2022-10-01T13:35:39.323Z,18.10
2022-10-01T13:38:30.559Z,18.20
2022-10-01T13:41:03.084Z,18.20
2022-10-01T13:43:31.453Z,18.20
2022-10-01T13:46:09.963Z,18.30
2022-10-01T13:48:45.319Z,18.30
2022-10-01T13:51:14.054Z,18.20
2022-10-01T13:54:01.619Z,18.30
2022-10-01T13:56:36.790Z,18.30
2022-10-01T13:59:45.006Z,18.30
2022-10-01T14:02:33.067Z,18.40
2022-10-01T14:05:28.206Z,18.50
2022-10-01T14:08:29.275Z,18.50
2022-10-01T14:11:19.835Z,18.30
2022-10-01T14:14:09.528Z,18.20
2022-10-01T14:16:47.544Z,18.00
2022-10-01T14:19:21.979Z,17.90
2022-10-01T14:22:16.679Z,17.80
2022-10-01T14:25:04.305Z,17.70
2022-10-01T14:27:56.628Z,17.80
2022-10-01T14:30:28.460Z,17.90
2022-10-01T14:33:26.191Z,17.90
2022-10-01T14:36:16.285Z,18.10
2022-10-01T14:38:43.032Z,18.30
2022-10-01T14:41:23.458Z,18.50
2022-10-01T14:43:50.333Z,18.60
2022-10-01T14:46:18.688Z,18.70
2022-10-01T14:48:56.012Z,18.80
2022-10-01T14:51:28.783Z,18.80
2022-10-01T14:53:57.970Z,18.80
2022-10-01T14:56:26.299Z,18.80
2022-10-01T14:59:02.780Z,18.90
2022-10-01T15:01:29.611Z,18.90
2022-10-01T15:03:59.007Z,19.00
2022-10-01T15:06:30.005Z,19.00
2022-10-01T15:09:11.457Z,19.10
2022-10-01T15:11:44.651Z,19.10
2022-10-01T15:14:20.994Z,19.00
2022-10-01T15:16:48.947Z,18.80
2022-10-01T15:19:19.472Z,18.70
2022-10-01T15:22:01.431Z,18.50
2022-10-01T15:24:40.000Z,18.20
2022-10-01T15:27:08.368Z,18.20
2022-10-01T15:29:36.480Z,18.10
2022-10-01T15:32:06.153Z,17.90
2022-10-01T15:34:37.167Z,17.80
2022-10-01T15:37:04.833Z,17.80
2022-10-01T15:39:40.236Z,17.70
2022-10-01T15:42:12.088Z,17.70
2022-10-01T15:44:40.813Z,17.70
2022-10-01T15:47:19.590Z,17.80
2022-10-01T15:50:12.237Z,18.00
2022-10-01T15:52:51.449Z,18.00
2022-10-01T15:55:29.016Z,18.00
2022-10-01T15:58:13.371Z,18.00
2022-10-01T16:01:01.615Z,18.00
2022-10-01T16:03:51.535Z,17.90
2022-10-01T16:06:24.086Z,17.90
2022-10-01T16:09:05.345Z,17.80
2022-10-01T16:11:49.746Z,17.70
2022-10-01T16:14:23.935Z,17.70
2022-10-01T16:16:50.870Z,17.70
2022-10-01T16:19:31.312Z,17.70
2022-10-01T16:22:21.736Z,17.70
2022-10-01T16:24:54.081Z,17.70
2022-10-01T16:27:49.982Z,17.70
2022-10-01T16:30:23.042Z,17.80
2022-10-01T16:32:49.947Z,17.80
2022-10-01T16:35:25.461Z,17.80
2022-10-01T16:37:55.126Z,17.80
2022-10-01T16:40:25.289Z,17.80
2022-10-01T16:42:52.959Z,17.70
2022-10-01T16:45:36.682Z,17.70
2022-10-01T16:48:13.051Z,17.60
2022-10-01T16:50:42.544Z,17.50
2022-10-01T16:53:16.469Z,17.50
2022-10-01T16:55:46.369Z,17.50
2022-10-01T16:58:17.270Z,17.50
2022-10-01T17:00:46.349Z,17.40
2022-10-01T17:03:17.840Z,17.40
2022-10-01T17:05:49.749Z,17.30
2022-10-01T17:08:17.146Z,17.30
2022-10-01T17:10:57.013Z,17.30
2022-10-01T17:13:30.228Z,17.30
2022-10-01T17:15:59.813Z,17.20
2022-10-01T17:18:27.004Z,17.20
2022-10-01T17:20:53.745Z,17.20
2022-10-01T17:23:22.338Z,17.20
2022-10-01T17:25:52.200Z,17.20
2022-10-01T17:28:24.400Z,17.10
2022-10-01T17:30:51.387Z,17.20
2022-10-01T17:33:22.553Z,17.10
2022-10-01T17:35:55.591Z,17.10
2022-10-01T17:38:23.351Z,17.10
2022-10-01T17:40:56.413Z,17.00
2022-10-01T17:43:28.169Z,17.00
2022-10-01T17:45:58.751Z,17.00
2022-10-01T17:48:27.394Z,16.90
2022-10-01T17:51:01.496Z,16.90
2022-10-01T17:53:38.176Z,16.80
2022-10-01T17:56:14.765Z,16.80
2022-10-01T17:58:47.474Z,16.70
2022-10-01T18:01:21.086Z,16.70
2022-10-01T18:03:52.015Z,16.70
2022-10-01T18:06:23.292Z,16.70
2022-10-01T18:08:57.355Z,16.70
2022-10-01T18:11:30.854Z,16.60
2022-10-01T18:13:58.568Z,16.60
2022-10-01T18:16:26.408Z,16.60
2022-10-01T18:21:48.623Z,16.60
2022-10-01T18:24:18.103Z,16.50
2022-10-01T18:26:45.759Z,16.40
2022-10-01T18:29:22.928Z,16.40
2022-10-01T18:32:02.616Z,16.30
2022-10-01T18:34:57.784Z,16.30
2022-10-01T18:37:48.438Z,16.30
2022-10-01T18:40:27.221Z,16.30
2022-10-01T18:43:22.998Z,16.20
2022-10-01T18:45:52.498Z,16.20
2022-10-01T18:48:31.127Z,16.20
2022-10-01T18:51:09.703Z,16.30
2022-10-01T18:54:15.147Z,16.20
2022-10-01T18:57:04.783Z,16.20
2022-10-01T18:59:59.574Z,16.20
2022-10-01T19:03:08.252Z,16.20
2022-10-01T19:05:58.553Z,16.20
2022-10-01T19:08:54.719Z,16.20
2022-10-01T19:11:46.098Z,16.10
2022-10-01T19:14:52.567Z,16.10
2022-10-01T19:17:25.226Z,16.00
2022-10-01T19:20:10.290Z,15.90
2022-10-01T19:23:00.889Z,15.90
2022-10-01T19:25:47.241Z,15.90
2022-10-01T19:28:35.527Z,15.80
2022-10-01T19:31:05.077Z,15.80
2022-10-01T19:33:36.495Z,15.70
2022-10-01T19:36:06.692Z,15.70
2022-10-01T19:38:40.690Z,15.70
2022-10-01T19:41:38.276Z,15.70
2022-10-01T19:44:19.570Z,15.70
2022-10-01T19:46:49.568Z,15.60
2022-10-01T19:49:27.566Z,15.70
2022-10-01T19:52:01.043Z,15.60
2022-10-01T19:54:31.612Z,15.60
2022-10-01T19:57:24.062Z,15.60
2022-10-01T20:00:03.793Z,15.60
2022-10-01T20:02:45.825Z,15.60
2022-10-01T20:05:28.368Z,15.60
2022-10-01T20:08:27.821Z,15.60
2022-10-01T20:10:57.339Z,15.60
2022-10-01T20:14:02.378Z,15.60
2022-10-01T20:16:45.281Z,15.60
2022-10-01T20:19:42.221Z,15.50
2022-10-01T20:22:31.081Z,15.40
2022-10-01T20:25:16.630Z,15.50
2022-10-01T20:28:04.058Z,15.40
2022-10-01T20:30:39.971Z,15.40
2022-10-01T20:33:13.058Z,15.40
2022-10-01T20:35:59.437Z,15.40
2022-10-01T20:38:52.481Z,15.30
2022-10-01T20:41:23.259Z,15.30
2022-10-01T20:43:59.067Z,15.30
2022-10-01T20:46:44.320Z,15.30
2022-10-01T20:49:19.648Z,15.30
2022-10-01T20:52:25.436Z,15.30
2022-10-01T20:54:56.330Z,15.30
2022-10-01T20:57:43.143Z,15.20
2022-10-01T21:00:20.421Z,15.20
2022-10-01T21:02:50.377Z,15.30
2022-10-01T21:05:29.517Z,15.20
2022-10-01T21:08:02.071Z,15.30
2022-10-01T21:10:42.528Z,15.30
2022-10-01T21:13:31.397Z,15.30
2022-10-01T21:16:24.164Z,15.30
2022-10-01T21:19:00.080Z,15.40
2022-10-01T21:21:28.980Z,15.40
2022-10-01T21:24:08.139Z,15.40
2022-10-01T21:27:16.984Z,15.50
2022-10-01T21:30:07.545Z,15.50
2022-10-01T21:33:01.288Z,15.50
2022-10-01T21:35:52.685Z,15.60
2022-10-01T21:38:30.258Z,15.60
2022-10-01T21:40:57.861Z,15.60
2022-10-01T21:43:50.769Z,15.70
2022-10-01T21:46:39.121Z,15.60
2022-10-01T21:49:10.828Z,15.60
2022-10-01T21:51:56.185Z,15.50
2022-10-01T21:54:44.627Z,15.40
2022-10-01T21:57:43.297Z,15.30
2022-10-01T22:00:36.543Z,15.20
2022-10-01T22:03:22.469Z,15.00
2022-10-01T22:06:03.123Z,14.90
2022-10-01T22:08:51.200Z,14.90
2022-10-01T22:11:22.065Z,14.80
2022-10-01T22:13:58.129Z,14.70
2022-10-01T22:16:30.804Z,14.70
2022-10-01T22:19:05.210Z,14.60
2022-10-01T22:21:40.952Z,14.60
2022-10-01T22:24:28.787Z,14.50
2022-10-01T22:27:05.418Z,14.50
2022-10-01T22:29:40.179Z,14.50
2022-10-01T22:32:10.765Z,14.50
2022-10-01T22:35:07.119Z,14.50
2022-10-01T22:37:47.403Z,14.50
2022-10-01T22:40:18.694Z,14.50
2022-10-01T22:43:07.884Z,14.50
2022-10-01T22:46:17.426Z,14.60
2022-10-01T22:48:56.748Z,14.60
2022-10-01T22:51:32.049Z,14.60
2022-10-01T22:54:36.061Z,14.60
2022-10-01T22:57:20.133Z,14.60
2022-10-01T23:00:05.196Z,14.60
2022-10-01T23:02:47.247Z,14.60
2022-10-01T23:05:44.039Z,14.60
2022-10-01T23:08:42.643Z,14.60
2022-10-01T23:11:20.774Z,14.60
2022-10-01T23:14:08.193Z,14.60
2022-10-01T23:16:54.300Z,14.50
2022-10-01T23:19:44.943Z,14.50
2022-10-01T23:22:43.515Z,14.50
2022-10-01T23:25:26.570Z,14.50
2022-10-01T23:28:24.229Z,14.50
2022-10-01T23:30:50.853Z,14.50
2022-10-01T23:33:54.303Z,14.50
2022-10-01T23:36:28.646Z,14.60
2022-10-01T23:39:32.989Z,14.60
2022-10-01T23:42:27.043Z,14.60
2022-10-01T23:45:21.978Z,14.70
2022-10-01T23:47:51.766Z,14.70
2022-10-01T23:50:32.355Z,14.70
2022-10-01T23:53:34.158Z,14.70
2022-10-01T23:56:32.639Z,14.80
2022-10-01T23:59:18.453Z,14.80
